KBUF/BUF METAR and TAF weather

Enter ICAO airport designator
Station Type Date Time Source
KBUF METAR 2018/12/12 22:54 UTC NOAA

KBUF 122254Z 08011KT 10SM FEW032 BKN110 BKN150 00/M04 A3004 RMK AO2 SLP183 T00001039


Station Type Date Time Source
KBUF Decoded METAR 2018/12/12 22:54 UTC NOAA

GREATER BUFFALO INTERNATIONAL AIRPORT , NY, United States (KBUF) 42-56N 078-44W 225M
Dec 12, 2018 - 05:54 PM EST / 2018.12.12 2254 UTC
Wind: from the E (080 degrees) at 13 MPH (11 KT):0
Visibility: 10 mile(s):0
Sky conditions: mostly cloudy
Temperature: 32.0 F (0.0 C)
Windchill: 23 F (-5 C):1
Dew Point: 25.0 F (-3.9 C)
Relative Humidity: 74%
Pressure (altimeter): 30.04 in. Hg (1017 hPa)
ob: KBUF 122254Z 08011KT 10SM FEW032 BKN110 BKN150 00/M04 A3004 RMK AO2 SLP183 T00001039
cycle: 23

Station Type Date Time Source
KBUF TAF 2018/12/12 21:03 UTC NOAA

TAF
AMD KBUF 122100Z 1221/1318 09008KT P6SM OVC030
FM130300 11010G18KT P6SM OVC060
FM130600 15008KT 3SM -SN BR OVC025
FM131200 18004KT P6SM BKN015
FM131700 20005KT P6SM SCT015


Example: see airport list